Time;durP1;ratioP1;P1;durP2;ratioP2;P2;SDS_P1;SDS_P2;PMS_P1;PMS_P2;Temp;Humidity;BMP_temperature;BMP_pressure;BME280_temperature;BME280_humidity;BME280_pressure;Samples;Min_cycle;Max_cycle;Signal;HPM_P1;HPM_P2
2020/04/21 00:03:51;;;;;;;7.849999;4.5;;;;;;;9.38;49.65234;94798.69;;;;
2020/04/21 00:10:46;;;;;;;6.7;4.649999;;;;;;;9.23;49.44238;94789.78;;;;
2020/04/21 00:11:56;;;;;;;6.7;4.649999;;;;;;;9.23;49.44238;94789.78;;;;
2020/04/21 00:13:11;;;;;;;6.7;4.649999;;;;;;;9.23;49.44238;94789.78;;;;
2020/04/21 00:14:18;;;;;;;6.7;4.649999;;;;;;;9.23;49.44238;94789.78;;;;
2020/04/21 00:15:26;;;;;;;6.7;4.649999;;;;;;;9.23;49.44238;94789.78;;;;
2020/04/21 00:16:37;;;;;;;6.7;4.649999;;;;;;;9.23;49.44238;94789.78;;;;
2020/04/21 00:17:45;;;;;;;5.4;3.95;;;;;;;9.15;49.50781;94781.28;;;;
2020/04/21 00:18:52;;;;;;;5.4;3.95;;;;;;;9.15;49.50781;94781.28;;;;
2020/04/21 00:20:04;;;;;;;5.4;3.95;;;;;;;9.15;49.50781;94781.28;;;;
2020/04/21 00:22:11;;;;;;;5.4;3.95;;;;;;;9.15;49.50781;94781.28;;;;
2020/04/21 00:23:19;;;;;;;5.4;3.95;;;;;;;9.15;49.50781;94781.28;;;;
2020/04/21 00:24:27;;;;;;;5.4;3.95;;;;;;;9.15;49.50781;94781.28;;;;
2020/04/21 00:26:09;;;;;;;5.4;3.95;;;;;;;9.15;49.50781;94781.28;;;;
2020/04/21 00:27:20;;;;;;;5.4;3.95;;;;;;;9.15;49.50781;94781.28;;;;
2020/04/21 00:28:27;;;;;;;6.599999;4.5;;;;;;;8.99;49.45801;94774.78;;;;
2020/04/21 00:29:35;;;;;;;6.599999;4.5;;;;;;;8.99;49.45801;94774.78;;;;
2020/04/21 00:30:44;;;;;;;6.599999;4.5;;;;;;;8.99;49.45801;94774.78;;;;
2020/04/21 00:36:51;;;;;;;6.599999;4.5;;;;;;;8.99;49.45801;94774.78;;;;
2020/04/21 00:38:00;;;;;;;6.599999;4.5;;;;;;;8.99;49.45801;94774.78;;;;
2020/04/21 00:44:24;;;;;;;6.100001;4.25;;;;;;;8.94;49.55957;94764.29;;;;
2020/04/21 00:50:44;;;;;;;5.5;3.7;;;;;;;8.83;49.5791;94762.99;;;;
2020/04/21 00:51:56;;;;;;;5.5;3.7;;;;;;;8.83;49.5791;94762.99;;;;
2020/04/21 00:53:06;;;;;;;5.5;3.7;;;;;;;8.83;49.5791;94762.99;;;;
2020/04/21 00:54:12;;;;;;;5.5;3.7;;;;;;;8.83;49.5791;94762.99;;;;
2020/04/21 00:56:24;;;;;;;5.5;3.7;;;;;;;8.83;49.5791;94762.99;;;;
2020/04/21 00:57:46;;;;;;;5.5;3.7;;;;;;;8.83;49.5791;94762.99;;;;
2020/04/21 01:09:06;;;;;;;7;4;;;;;;;8.77;49.625;94757.2;;;;
2020/04/21 01:10:15;;;;;;;7.399999;4;;;;;;;8.66;49.84961;94743.66;;;;
2020/04/21 01:11:23;;;;;;;7.399999;4;;;;;;;8.66;49.84961;94743.66;;;;
2020/04/21 01:12:35;;;;;;;7.399999;4;;;;;;;8.66;49.84961;94743.66;;;;
2020/04/21 01:14:15;;;;;;;7.399999;4;;;;;;;8.66;49.84961;94743.66;;;;
2020/04/21 01:15:26;;;;;;;7.399999;4;;;;;;;8.66;49.84961;94743.66;;;;
2020/04/21 01:16:39;;;;;;;7.399999;4;;;;;;;8.66;49.84961;94743.66;;;;
2020/04/21 01:17:47;;;;;;;7.399999;4;;;;;;;8.66;49.84961;94743.66;;;;
2020/04/21 01:18:58;;;;;;;7.399999;4;;;;;;;8.66;49.84961;94743.66;;;;
2020/04/21 01:20:15;;;;;;;7.399999;4;;;;;;;8.66;49.84961;94743.66;;;;
2020/04/21 01:26:37;;;;;;;7.8;4.199999;;;;;;;8.62;49.98438;94746;;;;
2020/04/21 01:27:45;;;;;;;7.8;4.199999;;;;;;;8.62;49.98438;94746;;;;
2020/04/21 01:34:04;;;;;;;5.9;4.300001;;;;;;;8.5;49.98242;94742.11;;;;
2020/04/21 01:35:12;;;;;;;5.9;4.300001;;;;;;;8.5;49.98242;94742.11;;;;
2020/04/21 01:36:22;;;;;;;5.9;4.300001;;;;;;;8.5;49.98242;94742.11;;;;
2020/04/21 01:37:30;;;;;;;5.9;4.300001;;;;;;;8.5;49.98242;94742.11;;;;
2020/04/21 01:38:37;;;;;;;5.9;4.300001;;;;;;;8.5;49.98242;94742.11;;;;
2020/04/21 01:39:47;;;;;;;5.9;4.300001;;;;;;;8.5;49.98242;94742.11;;;;
2020/04/21 01:40:54;;;;;;;5.9;4.300001;;;;;;;8.5;49.98242;94742.11;;;;
2020/04/21 01:42:07;;;;;;;6.55;4.049999;;;;;;;8.46;50.25586;94744.56;;;;
2020/04/21 01:43:15;;;;;;;6.55;4.049999;;;;;;;8.46;50.25586;94744.56;;;;
2020/04/21 01:44:58;;;;;;;6.55;4.049999;;;;;;;8.46;50.25586;94744.56;;;;
2020/04/21 01:46:05;;;;;;;6.55;4.049999;;;;;;;8.46;50.25586;94744.56;;;;
2020/04/21 01:47:11;;;;;;;6.55;4.049999;;;;;;;8.46;50.25586;94744.56;;;;
2020/04/21 01:48:19;;;;;;;6.55;4.049999;;;;;;;8.46;50.25586;94744.56;;;;
2020/04/21 01:49:35;;;;;;;6.55;4.049999;;;;;;;8.46;50.25586;94744.56;;;;
2020/04/21 01:50:42;;;;;;;6.55;4.049999;;;;;;;8.46;50.25586;94744.56;;;;
2020/04/21 01:51:52;;;;;;;6.55;4.049999;;;;;;;8.46;50.25586;94744.56;;;;
2020/04/21 01:53:02;;;;;;;4.15;3.75;;;;;;;8.39;50.3877;94731.76;;;;
2020/04/21 01:55:13;;;;;;;4.15;3.75;;;;;;;8.39;50.3877;94731.76;;;;
2020/04/21 02:01:33;;;;;;;4.15;3.75;;;;;;;8.39;50.3877;94731.76;;;;
2020/04/21 02:02:40;;;;;;;4.15;3.75;;;;;;;8.39;50.3877;94731.76;;;;
2020/04/21 02:03:48;;;;;;;5.6;4.25;;;;;;;8.36;50.69531;94729.03;;;;
2020/04/21 02:04:59;;;;;;;5.6;4.25;;;;;;;8.36;50.69531;94729.03;;;;
2020/04/21 02:06:39;;;;;;;5.6;4.25;;;;;;;8.36;50.69531;94729.03;;;;
2020/04/21 02:07:46;;;;;;;5.6;4.25;;;;;;;8.36;50.69531;94729.03;;;;
2020/04/21 02:08:56;;;;;;;5.6;4.25;;;;;;;8.36;50.69531;94729.03;;;;
2020/04/21 02:10:05;;;;;;;5.6;4.25;;;;;;;8.36;50.69531;94729.03;;;;
2020/04/21 02:11:17;;;;;;;5.6;4.25;;;;;;;8.36;50.69531;94729.03;;;;
2020/04/21 02:12:32;;;;;;;5.6;4.25;;;;;;;8.36;50.69531;94729.03;;;;
2020/04/21 02:13:43;;;;;;;7.1;4.4;;;;;;;8.26;50.70313;94729.32;;;;
2020/04/21 02:15:00;;;;;;;7.1;4.4;;;;;;;8.26;50.70313;94729.32;;;;
2020/04/21 02:16:08;;;;;;;7.1;4.4;;;;;;;8.26;50.70313;94729.32;;;;
2020/04/21 02:17:16;;;;;;;7.1;4.4;;;;;;;8.26;50.70313;94729.32;;;;
2020/04/21 02:18:30;;;;;;;7.1;4.4;;;;;;;8.26;50.70313;94729.32;;;;
2020/04/21 02:19:39;;;;;;;7.1;4.4;;;;;;;8.26;50.70313;94729.32;;;;
2020/04/21 02:21:01;;;;;;;7.1;4.4;;;;;;;8.26;50.70313;94729.32;;;;
2020/04/21 02:22:09;;;;;;;7.1;4.4;;;;;;;8.26;50.70313;94729.32;;;;
2020/04/21 02:23:15;;;;;;;7.1;4.4;;;;;;;8.26;50.70313;94729.32;;;;
2020/04/21 02:24:21;;;;;;;5.5;3.9;;;;;;;8.23;50.87109;94720.34;;;;
2020/04/21 02:25:59;;;;;;;5.5;3.9;;;;;;;8.23;50.87109;94720.34;;;;
2020/04/21 02:27:23;;;;;;;5.5;3.9;;;;;;;8.23;50.87109;94720.34;;;;
2020/04/21 02:29:33;;;;;;;5.5;3.9;;;;;;;8.23;50.87109;94720.34;;;;
2020/04/21 02:30:43;;;;;;;5.5;3.9;;;;;;;8.23;50.87109;94720.34;;;;
2020/04/21 02:31:50;;;;;;;5.5;3.9;;;;;;;8.23;50.87109;94720.34;;;;
2020/04/21 02:32:58;;;;;;;5.5;3.9;;;;;;;8.23;50.87109;94720.34;;;;
2020/04/21 02:34:04;;;;;;;5.5;3.9;;;;;;;8.23;50.87109;94720.34;;;;
2020/04/21 02:40:30;;;;;;;6.9;4.3;;;;;;;8.15;51.0127;94709;;;;
2020/04/21 02:41:53;;;;;;;6.9;4.3;;;;;;;8.15;51.0127;94709;;;;
2020/04/21 02:43:03;;;;;;;6.9;4.3;;;;;;;8.15;51.0127;94709;;;;
2020/04/21 02:49:53;;;;;;;7.899999;4.450001;;;;;;;8.12;51.39453;94702.76;;;;
2020/04/21 02:51:01;;;;;;;7.899999;4.450001;;;;;;;8.12;51.39453;94702.76;;;;
2020/04/21 02:52:08;;;;;;;7.899999;4.450001;;;;;;;8.12;51.39453;94702.76;;;;
2020/04/21 02:53:17;;;;;;;7.899999;4.450001;;;;;;;8.12;51.39453;94702.76;;;;
2020/04/21 02:54:25;;;;;;;7.899999;4.450001;;;;;;;8.12;51.39453;94702.76;;;;
2020/04/21 02:55:33;;;;;;;7.899999;4.450001;;;;;;;8.12;51.39453;94702.76;;;;
2020/04/21 03:01:53;;;;;;;7.7;4.25;;;;;;;8.03;51.62988;94696.09;;;;
2020/04/21 03:03:01;;;;;;;7.7;4.25;;;;;;;8.03;51.62988;94696.09;;;;
2020/04/21 03:04:08;;;;;;;7.7;4.25;;;;;;;8.03;51.62988;94696.09;;;;
2020/04/21 03:10:21;;;;;;;7.2;4.450001;;;;;;;8;51.72266;94685.83;;;;
2020/04/21 03:11:36;;;;;;;7.2;4.450001;;;;;;;8;51.72266;94685.83;;;;
2020/04/21 03:12:45;;;;;;;7.2;4.450001;;;;;;;8;51.72266;94685.83;;;;
2020/04/21 03:19:14;;;;;;;5.6;4.199999;;;;;;;7.89;51.9248;94682.09;;;;
2020/04/21 03:20:38;;;;;;;5.6;4.199999;;;;;;;7.89;51.9248;94682.09;;;;
2020/04/21 03:21:46;;;;;;;5.6;4.199999;;;;;;;7.89;51.9248;94682.09;;;;
2020/04/21 03:22:54;;;;;;;5.6;4.199999;;;;;;;7.89;51.9248;94682.09;;;;
2020/04/21 03:24:18;;;;;;;5.6;4.199999;;;;;;;7.89;51.9248;94682.09;;;;
2020/04/21 03:25:24;;;;;;;5.6;4.199999;;;;;;;7.89;51.9248;94682.09;;;;
2020/04/21 03:26:32;;;;;;;5.6;4.199999;;;;;;;7.89;51.9248;94682.09;;;;
2020/04/21 03:27:41;;;;;;;6.050001;4.55;;;;;;;7.84;52.20703;94672.16;;;;
2020/04/21 03:29:06;;;;;;;6.050001;4.55;;;;;;;7.84;52.20703;94672.16;;;;
2020/04/21 03:30:15;;;;;;;6.050001;4.55;;;;;;;7.84;52.20703;94672.16;;;;
2020/04/21 03:36:42;;;;;;;6.050001;4.55;;;;;;;7.84;52.20703;94672.16;;;;
2020/04/21 03:38:17;;;;;;;6.050001;4.55;;;;;;;7.84;52.20703;94672.16;;;;
2020/04/21 03:39:20;;;;;;;5.699999;4.5;;;;;;;7.73;52.46191;94674.73;;;;
2020/04/21 03:40:21;;;;;;;5.699999;4.5;;;;;;;7.73;52.46191;94674.73;;;;
2020/04/21 03:41:21;;;;;;;5.699999;4.5;;;;;;;7.73;52.46191;94674.73;;;;
2020/04/21 03:42:22;;;;;;;5.699999;4.5;;;;;;;7.73;52.46191;94674.73;;;;
2020/04/21 03:43:22;;;;;;;5.699999;4.5;;;;;;;7.73;52.46191;94674.73;;;;
2020/04/21 03:44:23;;;;;;;5.699999;4.5;;;;;;;7.73;52.46191;94674.73;;;;
2020/04/21 03:45:23;;;;;;;5.699999;4.5;;;;;;;7.73;52.46191;94674.73;;;;
2020/04/21 03:46:24;;;;;;;5.699999;4.5;;;;;;;7.73;52.46191;94674.73;;;;
2020/04/21 03:47:24;;;;;;;5.699999;4.5;;;;;;;7.73;52.46191;94674.73;;;;
2020/04/21 03:48:25;;;;;;;5.699999;4.5;;;;;;;7.73;52.46191;94674.73;;;;
2020/04/21 03:49:25;;;;;;;5.849999;4.55;;;;;;;7.7;52.52148;94662.67;;;;
2020/04/21 03:50:26;;;;;;;5.849999;4.55;;;;;;;7.7;52.52148;94662.67;;;;
2020/04/21 03:51:26;;;;;;;5.849999;4.55;;;;;;;7.7;52.52148;94662.67;;;;
2020/04/21 03:52:27;;;;;;;5.849999;4.55;;;;;;;7.7;52.52148;94662.67;;;;
2020/04/21 03:53:27;;;;;;;5.849999;4.55;;;;;;;7.7;52.52148;94662.67;;;;
2020/04/21 03:54:27;;;;;;;5.849999;4.55;;;;;;;7.7;52.52148;94662.67;;;;
2020/04/21 03:55:28;;;;;;;5.849999;4.55;;;;;;;7.7;52.52148;94662.67;;;;
2020/04/21 03:56:28;;;;;;;5.849999;4.55;;;;;;;7.7;52.52148;94662.67;;;;
2020/04/21 03:57:29;;;;;;;5.849999;4.55;;;;;;;7.7;52.52148;94662.67;;;;
2020/04/21 03:58:29;;;;;;;5.849999;4.55;;;;;;;7.7;52.52148;94662.67;;;;
2020/04/21 03:59:30;;;;;;;6.099999;4.550001;;;;;;;7.59;52.6582;94666.58;;;;
2020/04/21 04:00:30;;;;;;;6.099999;4.550001;;;;;;;7.59;52.6582;94666.58;;;;
2020/04/21 04:01:31;;;;;;;6.099999;4.550001;;;;;;;7.59;52.6582;94666.58;;;;
2020/04/21 04:02:31;;;;;;;6.099999;4.550001;;;;;;;7.59;52.6582;94666.58;;;;
2020/04/21 04:03:32;;;;;;;6.099999;4.550001;;;;;;;7.59;52.6582;94666.58;;;;
2020/04/21 04:04:32;;;;;;;6.099999;4.550001;;;;;;;7.59;52.6582;94666.58;;;;
2020/04/21 04:05:33;;;;;;;6.099999;4.550001;;;;;;;7.59;52.6582;94666.58;;;;
2020/04/21 04:06:33;;;;;;;6.099999;4.550001;;;;;;;7.59;52.6582;94666.58;;;;
2020/04/21 04:07:34;;;;;;;6.099999;4.550001;;;;;;;7.59;52.6582;94666.58;;;;
2020/04/21 04:08:34;;;;;;;6.099999;4.550001;;;;;;;7.59;52.6582;94666.58;;;;
2020/04/21 04:09:36;;;;;;;6.099999;4.550001;;;;;;;7.59;52.6582;94666.58;;;;
2020/04/21 04:10:36;;;;;;;6.95;4.349999;;;;;;;7.6;52.7666;94669.58;;;;
2020/04/21 04:11:38;;;;;;;6.95;4.349999;;;;;;;7.6;52.7666;94669.58;;;;
2020/04/21 04:12:43;;;;;;;6.95;4.349999;;;;;;;7.6;52.7666;94669.58;;;;
2020/04/21 04:13:46;;;;;;;6.95;4.349999;;;;;;;7.6;52.7666;94669.58;;;;
2020/04/21 04:14:46;;;;;;;6.95;4.349999;;;;;;;7.6;52.7666;94669.58;;;;
2020/04/21 04:15:47;;;;;;;6.95;4.349999;;;;;;;7.6;52.7666;94669.58;;;;
2020/04/21 04:16:47;;;;;;;6.95;4.349999;;;;;;;7.6;52.7666;94669.58;;;;
2020/04/21 04:17:48;;;;;;;6.95;4.349999;;;;;;;7.6;52.7666;94669.58;;;;
2020/04/21 04:18:48;;;;;;;6.95;4.349999;;;;;;;7.6;52.7666;94669.58;;;;
2020/04/21 04:19:48;;;;;;;6.95;4.349999;;;;;;;7.6;52.7666;94669.58;;;;
2020/04/21 04:20:49;;;;;;;7.599999;4.400001;;;;;;;7.52;52.69336;94665.88;;;;
2020/04/21 04:21:49;;;;;;;7.599999;4.400001;;;;;;;7.52;52.69336;94665.88;;;;
2020/04/21 04:22:50;;;;;;;7.599999;4.400001;;;;;;;7.52;52.69336;94665.88;;;;
2020/04/21 04:23:50;;;;;;;7.599999;4.400001;;;;;;;7.52;52.69336;94665.88;;;;
2020/04/21 04:24:51;;;;;;;7.599999;4.400001;;;;;;;7.52;52.69336;94665.88;;;;
2020/04/21 04:25:51;;;;;;;7.599999;4.400001;;;;;;;7.52;52.69336;94665.88;;;;
2020/04/21 04:26:52;;;;;;;7.599999;4.400001;;;;;;;7.52;52.69336;94665.88;;;;
2020/04/21 04:27:52;;;;;;;7.599999;4.400001;;;;;;;7.52;52.69336;94665.88;;;;
2020/04/21 04:28:53;;;;;;;7.599999;4.400001;;;;;;;7.52;52.69336;94665.88;;;;
2020/04/21 04:29:53;;;;;;;7.599999;4.400001;;;;;;;7.52;52.69336;94665.88;;;;
2020/04/21 04:30:54;;;;;;;7.599999;4.400001;;;;;;;7.52;52.69336;94665.88;;;;
2020/04/21 04:31:54;;;;;;;7.85;4.900001;;;;;;;7.5;52.87305;94677.4;;;;
2020/04/21 04:32:55;;;;;;;7.85;4.900001;;;;;;;7.5;52.87305;94677.4;;;;
2020/04/21 04:33:55;;;;;;;7.85;4.900001;;;;;;;7.5;52.87305;94677.4;;;;
2020/04/21 04:34:55;;;;;;;7.85;4.900001;;;;;;;7.5;52.87305;94677.4;;;;
2020/04/21 04:35:56;;;;;;;7.85;4.900001;;;;;;;7.5;52.87305;94677.4;;;;
2020/04/21 04:36:56;;;;;;;7.85;4.900001;;;;;;;7.5;52.87305;94677.4;;;;
2020/04/21 04:37:57;;;;;;;7.85;4.900001;;;;;;;7.5;52.87305;94677.4;;;;
2020/04/21 04:38:57;;;;;;;7.85;4.900001;;;;;;;7.5;52.87305;94677.4;;;;
2020/04/21 04:39:58;;;;;;;7.85;4.900001;;;;;;;7.5;52.87305;94677.4;;;;
2020/04/21 04:40:58;;;;;;;7.85;4.900001;;;;;;;7.5;52.87305;94677.4;;;;
2020/04/21 04:41:59;;;;;;;6.300001;4.2;;;;;;;7.49;53.21191;94676.26;;;;
2020/04/21 04:42:59;;;;;;;6.300001;4.2;;;;;;;7.49;53.21191;94676.26;;;;
2020/04/21 04:43:59;;;;;;;6.300001;4.2;;;;;;;7.49;53.21191;94676.26;;;;
2020/04/21 04:45:00;;;;;;;6.300001;4.2;;;;;;;7.49;53.21191;94676.26;;;;
2020/04/21 04:46:00;;;;;;;6.300001;4.2;;;;;;;7.49;53.21191;94676.26;;;;
2020/04/21 04:47:01;;;;;;;6.300001;4.2;;;;;;;7.49;53.21191;94676.26;;;;
2020/04/21 04:48:01;;;;;;;6.300001;4.2;;;;;;;7.49;53.21191;94676.26;;;;
2020/04/21 04:49:02;;;;;;;6.300001;4.2;;;;;;;7.49;53.21191;94676.26;;;;
2020/04/21 04:50:02;;;;;;;6.300001;4.2;;;;;;;7.49;53.21191;94676.26;;;;
2020/04/21 04:51:03;;;;;;;6.300001;4.2;;;;;;;7.49;53.21191;94676.26;;;;
2020/04/21 04:52:04;;;;;;;6.300001;4.2;;;;;;;7.49;53.21191;94676.26;;;;
2020/04/21 04:53:04;;;;;;;6.45;4.299999;;;;;;;7.63;53.06934;94682.12;;;;
2020/04/21 04:54:04;;;;;;;6.45;4.299999;;;;;;;7.63;53.06934;94682.12;;;;
2020/04/21 04:55:05;;;;;;;6.45;4.299999;;;;;;;7.63;53.06934;94682.12;;;;
2020/04/21 04:56:05;;;;;;;6.45;4.299999;;;;;;;7.63;53.06934;94682.12;;;;
2020/04/21 04:57:06;;;;;;;6.45;4.299999;;;;;;;7.63;53.06934;94682.12;;;;
2020/04/21 04:58:06;;;;;;;6.45;4.299999;;;;;;;7.63;53.06934;94682.12;;;;
2020/04/21 04:59:07;;;;;;;6.45;4.299999;;;;;;;7.63;53.06934;94682.12;;;;
2020/04/21 05:00:07;;;;;;;6.45;4.299999;;;;;;;7.63;53.06934;94682.12;;;;
2020/04/21 05:01:08;;;;;;;6.45;4.299999;;;;;;;7.63;53.06934;94682.12;;;;
2020/04/21 05:02:08;;;;;;;6.45;4.299999;;;;;;;7.63;53.06934;94682.12;;;;
2020/04/21 05:03:09;;;;;;;7.7;4.3;;;;;;;7.78;52.79883;94680.22;;;;
2020/04/21 05:04:09;;;;;;;7.7;4.3;;;;;;;7.78;52.79883;94680.22;;;;
2020/04/21 05:05:10;;;;;;;7.7;4.3;;;;;;;7.78;52.79883;94680.22;;;;
2020/04/21 05:06:10;;;;;;;7.7;4.3;;;;;;;7.78;52.79883;94680.22;;;;
2020/04/21 05:07:11;;;;;;;7.7;4.3;;;;;;;7.78;52.79883;94680.22;;;;
2020/04/21 05:08:11;;;;;;;7.7;4.3;;;;;;;7.78;52.79883;94680.22;;;;
2020/04/21 05:09:11;;;;;;;7.7;4.3;;;;;;;7.78;52.79883;94680.22;;;;
2020/04/21 05:10:12;;;;;;;7.7;4.3;;;;;;;7.78;52.79883;94680.22;;;;
2020/04/21 05:11:12;;;;;;;7.7;4.3;;;;;;;7.78;52.79883;94680.22;;;;
2020/04/21 05:12:13;;;;;;;7.7;4.3;;;;;;;7.78;52.79883;94680.22;;;;
2020/04/21 05:13:13;;;;;;;7.7;4.3;;;;;;;7.78;52.79883;94680.22;;;;
2020/04/21 05:14:14;;;;;;;10.9;4.25;;;;;;;8.07;52.62109;94691.89;;;;
2020/04/21 05:15:15;;;;;;;10.9;4.25;;;;;;;8.07;52.62109;94691.89;;;;
2020/04/21 05:16:15;;;;;;;10.9;4.25;;;;;;;8.07;52.62109;94691.89;;;;
2020/04/21 05:17:15;;;;;;;10.9;4.25;;;;;;;8.07;52.62109;94691.89;;;;
2020/04/21 05:18:16;;;;;;;10.9;4.25;;;;;;;8.07;52.62109;94691.89;;;;
2020/04/21 05:19:16;;;;;;;10.9;4.25;;;;;;;8.07;52.62109;94691.89;;;;
2020/04/21 05:20:17;;;;;;;10.9;4.25;;;;;;;8.07;52.62109;94691.89;;;;
2020/04/21 05:21:17;;;;;;;10.9;4.25;;;;;;;8.07;52.62109;94691.89;;;;
2020/04/21 05:22:18;;;;;;;10.9;4.25;;;;;;;8.07;52.62109;94691.89;;;;
2020/04/21 05:23:18;;;;;;;10.9;4.25;;;;;;;8.07;52.62109;94691.89;;;;
2020/04/21 05:24:19;;;;;;;9.299998;4.85;;;;;;;8.24;52.31934;94698.21;;;;
2020/04/21 05:25:19;;;;;;;9.299998;4.85;;;;;;;8.24;52.31934;94698.21;;;;
2020/04/21 05:26:20;;;;;;;9.299998;4.85;;;;;;;8.24;52.31934;94698.21;;;;
2020/04/21 05:27:20;;;;;;;9.299998;4.85;;;;;;;8.24;52.31934;94698.21;;;;
2020/04/21 05:28:20;;;;;;;9.299998;4.85;;;;;;;8.24;52.31934;94698.21;;;;
2020/04/21 05:29:21;;;;;;;9.299998;4.85;;;;;;;8.24;52.31934;94698.21;;;;
2020/04/21 05:30:21;;;;;;;9.299998;4.85;;;;;;;8.24;52.31934;94698.21;;;;
2020/04/21 05:31:22;;;;;;;9.299998;4.85;;;;;;;8.24;52.31934;94698.21;;;;
2020/04/21 05:32:22;;;;;;;9.299998;4.85;;;;;;;8.24;52.31934;94698.21;;;;
2020/04/21 05:33:23;;;;;;;9.299998;4.85;;;;;;;8.24;52.31934;94698.21;;;;
2020/04/21 05:34:23;;;;;;;9.299998;4.85;;;;;;;8.24;52.31934;94698.21;;;;
2020/04/21 05:35:23;;;;;;;7.550001;4.55;;;;;;;8.64;52.00293;94704.88;;;;
2020/04/21 05:36:24;;;;;;;7.550001;4.55;;;;;;;8.64;52.00293;94704.88;;;;
2020/04/21 05:37:24;;;;;;;7.550001;4.55;;;;;;;8.64;52.00293;94704.88;;;;
2020/04/21 05:38:25;;;;;;;7.550001;4.55;;;;;;;8.64;52.00293;94704.88;;;;
2020/04/21 05:39:25;;;;;;;7.550001;4.55;;;;;;;8.64;52.00293;94704.88;;;;
2020/04/21 05:40:26;;;;;;;7.550001;4.55;;;;;;;8.64;52.00293;94704.88;;;;
2020/04/21 05:41:26;;;;;;;7.550001;4.55;;;;;;;8.64;52.00293;94704.88;;;;
2020/04/21 05:42:27;;;;;;;7.550001;4.55;;;;;;;8.64;52.00293;94704.88;;;;
2020/04/21 05:43:27;;;;;;;7.550001;4.55;;;;;;;8.64;52.00293;94704.88;;;;
2020/04/21 05:44:28;;;;;;;7.550001;4.55;;;;;;;8.64;52.00293;94704.88;;;;
2020/04/21 05:45:28;;;;;;;7.899999;4.649999;;;;;;;9.29;51.26465;94702.64;;;;
2020/04/21 05:46:29;;;;;;;7.899999;4.649999;;;;;;;9.29;51.26465;94702.64;;;;
2020/04/21 05:47:29;;;;;;;7.899999;4.649999;;;;;;;9.29;51.26465;94702.64;;;;
2020/04/21 05:48:29;;;;;;;7.899999;4.649999;;;;;;;9.29;51.26465;94702.64;;;;
2020/04/21 05:49:30;;;;;;;7.899999;4.649999;;;;;;;9.29;51.26465;94702.64;;;;
2020/04/21 05:50:30;;;;;;;7.899999;4.649999;;;;;;;9.29;51.26465;94702.64;;;;
2020/04/21 05:51:31;;;;;;;7.899999;4.649999;;;;;;;9.29;51.26465;94702.64;;;;
2020/04/21 05:52:31;;;;;;;7.899999;4.649999;;;;;;;9.29;51.26465;94702.64;;;;
2020/04/21 05:53:32;;;;;;;7.899999;4.649999;;;;;;;9.29;51.26465;94702.64;;;;
2020/04/21 05:54:32;;;;;;;7.899999;4.649999;;;;;;;9.29;51.26465;94702.64;;;;
2020/04/21 05:55:33;;;;;;;7.899999;4.649999;;;;;;;9.29;51.26465;94702.64;;;;
2020/04/21 05:56:33;;;;;;;6.249999;4.7;;;;;;;9.8;50.62598;94699.88;;;;
2020/04/21 05:57:34;;;;;;;6.249999;4.7;;;;;;;9.8;50.62598;94699.88;;;;
2020/04/21 05:58:34;;;;;;;6.249999;4.7;;;;;;;9.8;50.62598;94699.88;;;;
2020/04/21 05:59:35;;;;;;;6.249999;4.7;;;;;;;9.8;50.62598;94699.88;;;;
2020/04/21 06:00:35;;;;;;;6.249999;4.7;;;;;;;9.8;50.62598;94699.88;;;;
2020/04/21 06:01:36;;;;;;;6.249999;4.7;;;;;;;9.8;50.62598;94699.88;;;;
2020/04/21 06:02:36;;;;;;;6.249999;4.7;;;;;;;9.8;50.62598;94699.88;;;;
2020/04/21 06:03:37;;;;;;;6.249999;4.7;;;;;;;9.8;50.62598;94699.88;;;;
2020/04/21 06:04:37;;;;;;;6.249999;4.7;;;;;;;9.8;50.62598;94699.88;;;;
2020/04/21 06:05:38;;;;;;;6.249999;4.7;;;;;;;9.8;50.62598;94699.88;;;;
2020/04/21 06:06:38;;;;;;;6.649999;4.699999;;;;;;;10.02;50.26465;94696.59;;;;
2020/04/21 06:07:38;;;;;;;6.649999;4.699999;;;;;;;10.02;50.26465;94696.59;;;;
2020/04/21 06:08:39;;;;;;;6.649999;4.699999;;;;;;;10.02;50.26465;94696.59;;;;
2020/04/21 06:09:39;;;;;;;6.649999;4.699999;;;;;;;10.02;50.26465;94696.59;;;;
2020/04/21 06:10:40;;;;;;;6.649999;4.699999;;;;;;;10.02;50.26465;94696.59;;;;
2020/04/21 06:11:40;;;;;;;6.649999;4.699999;;;;;;;10.02;50.26465;94696.59;;;;
2020/04/21 06:12:41;;;;;;;6.649999;4.699999;;;;;;;10.02;50.26465;94696.59;;;;
2020/04/21 06:13:41;;;;;;;6.649999;4.699999;;;;;;;10.02;50.26465;94696.59;;;;
2020/04/21 06:14:42;;;;;;;6.649999;4.699999;;;;;;;10.02;50.26465;94696.59;;;;
2020/04/21 06:15:42;;;;;;;6.649999;4.699999;;;;;;;10.02;50.26465;94696.59;;;;
2020/04/21 06:16:43;;;;;;;6.649999;4.699999;;;;;;;10.02;50.26465;94696.59;;;;
2020/04/21 06:17:43;;;;;;;7.9;4.45;;;;;;;10.42;49.94434;94694.22;;;;
2020/04/21 06:18:43;;;;;;;7.9;4.45;;;;;;;10.42;49.94434;94694.22;;;;
2020/04/21 06:19:44;;;;;;;7.9;4.45;;;;;;;10.42;49.94434;94694.22;;;;
2020/04/21 06:20:44;;;;;;;7.9;4.45;;;;;;;10.42;49.94434;94694.22;;;;
2020/04/21 06:21:45;;;;;;;7.9;4.45;;;;;;;10.42;49.94434;94694.22;;;;
2020/04/21 06:22:45;;;;;;;7.9;4.45;;;;;;;10.42;49.94434;94694.22;;;;
2020/04/21 06:23:46;;;;;;;7.9;4.45;;;;;;;10.42;49.94434;94694.22;;;;
2020/04/21 06:24:46;;;;;;;7.9;4.45;;;;;;;10.42;49.94434;94694.22;;;;
2020/04/21 06:25:47;;;;;;;7.9;4.45;;;;;;;10.42;49.94434;94694.22;;;;
2020/04/21 06:26:47;;;;;;;7.9;4.45;;;;;;;10.42;49.94434;94694.22;;;;
2020/04/21 06:27:48;;;;;;;7.099999;4.55;;;;;;;10.96;49.30469;94704.1;;;;
2020/04/21 06:28:48;;;;;;;7.099999;4.55;;;;;;;10.96;49.30469;94704.1;;;;
2020/04/21 06:29:49;;;;;;;7.099999;4.55;;;;;;;10.96;49.30469;94704.1;;;;
2020/04/21 06:30:49;;;;;;;7.099999;4.55;;;;;;;10.96;49.30469;94704.1;;;;
2020/04/21 06:31:49;;;;;;;7.099999;4.55;;;;;;;10.96;49.30469;94704.1;;;;
2020/04/21 06:32:50;;;;;;;7.099999;4.55;;;;;;;10.96;49.30469;94704.1;;;;
2020/04/21 06:33:50;;;;;;;7.099999;4.55;;;;;;;10.96;49.30469;94704.1;;;;
2020/04/21 06:34:51;;;;;;;7.099999;4.55;;;;;;;10.96;49.30469;94704.1;;;;
2020/04/21 06:35:51;;;;;;;7.099999;4.55;;;;;;;10.96;49.30469;94704.1;;;;
2020/04/21 06:36:52;;;;;;;7.099999;4.55;;;;;;;10.96;49.30469;94704.1;;;;
2020/04/21 06:37:52;;;;;;;7.099999;4.55;;;;;;;10.96;49.30469;94704.1;;;;
2020/04/21 06:38:53;;;;;;;7.199999;4.400001;;;;;;;11.55;48.5293;94713.14;;;;
2020/04/21 06:39:53;;;;;;;7.199999;4.400001;;;;;;;11.55;48.5293;94713.14;;;;
2020/04/21 06:40:54;;;;;;;7.199999;4.400001;;;;;;;11.55;48.5293;94713.14;;;;
2020/04/21 06:41:54;;;;;;;7.199999;4.400001;;;;;;;11.55;48.5293;94713.14;;;;
2020/04/21 06:42:55;;;;;;;7.199999;4.400001;;;;;;;11.55;48.5293;94713.14;;;;
2020/04/21 06:43:55;;;;;;;7.199999;4.400001;;;;;;;11.55;48.5293;94713.14;;;;
2020/04/21 06:44:56;;;;;;;7.199999;4.400001;;;;;;;11.55;48.5293;94713.14;;;;
2020/04/21 06:45:56;;;;;;;7.199999;4.400001;;;;;;;11.55;48.5293;94713.14;;;;
2020/04/21 06:46:57;;;;;;;7.199999;4.400001;;;;;;;11.55;48.5293;94713.14;;;;
2020/04/21 06:47:57;;;;;;;7.199999;4.400001;;;;;;;11.55;48.5293;94713.14;;;;
2020/04/21 06:48:57;;;;;;;8.250002;4.3;;;;;;;12.16;47.60156;94715.71;;;;
2020/04/21 06:49:58;;;;;;;8.250002;4.3;;;;;;;12.16;47.60156;94715.71;;;;
2020/04/21 06:50:58;;;;;;;8.250002;4.3;;;;;;;12.16;47.60156;94715.71;;;;
2020/04/21 06:51:59;;;;;;;8.250002;4.3;;;;;;;12.16;47.60156;94715.71;;;;
2020/04/21 06:52:59;;;;;;;8.250002;4.3;;;;;;;12.16;47.60156;94715.71;;;;
2020/04/21 06:54:00;;;;;;;8.250002;4.3;;;;;;;12.16;47.60156;94715.71;;;;
2020/04/21 06:55:00;;;;;;;8.250002;4.3;;;;;;;12.16;47.60156;94715.71;;;;
2020/04/21 06:56:01;;;;;;;8.250002;4.3;;;;;;;12.16;47.60156;94715.71;;;;
2020/04/21 06:57:01;;;;;;;8.250002;4.3;;;;;;;12.16;47.60156;94715.71;;;;
2020/04/21 06:58:02;;;;;;;8.250002;4.3;;;;;;;12.16;47.60156;94715.71;;;;
2020/04/21 06:59:02;;;;;;;8.250002;4.3;;;;;;;12.16;47.60156;94715.71;;;;
2020/04/21 07:00:03;;;;;;;5.95;4.1;;;;;;;12.96;46.22363;94724.06;;;;
2020/04/21 07:01:04;;;;;;;5.95;4.1;;;;;;;12.96;46.22363;94724.06;;;;
2020/04/21 07:02:05;;;;;;;5.4;4.1;;;;;;;13.28;45.64941;94731.53;;;;
2020/04/21 07:03:06;;;;;;;5.4;4.1;;;;;;;13.28;45.64941;94731.53;;;;
2020/04/21 07:04:07;;;;;;;5.4;4.1;;;;;;;13.28;45.64941;94731.53;;;;
2020/04/21 07:05:07;;;;;;;5.4;4.1;;;;;;;13.28;45.64941;94731.53;;;;
2020/04/21 07:06:08;;;;;;;5.4;4.1;;;;;;;13.28;45.64941;94731.53;;;;
2020/04/21 07:07:08;;;;;;;5.4;4.1;;;;;;;13.28;45.64941;94731.53;;;;
2020/04/21 07:08:09;;;;;;;5.4;4.1;;;;;;;13.28;45.64941;94731.53;;;;
2020/04/21 07:09:09;;;;;;;5.4;4.1;;;;;;;13.28;45.64941;94731.53;;;;
2020/04/21 07:10:10;;;;;;;5.4;4.1;;;;;;;13.28;45.64941;94731.53;;;;
2020/04/21 07:11:11;;;;;;;5.4;4.1;;;;;;;13.28;45.64941;94731.53;;;;
2020/04/21 07:12:11;;;;;;;5.4;4.1;;;;;;;13.28;45.64941;94731.53;;;;
2020/04/21 07:13:11;;;;;;;5.75;4.199999;;;;;;;13.85;44.80664;94734.93;;;;
2020/04/21 07:14:12;;;;;;;5.75;4.199999;;;;;;;13.85;44.80664;94734.93;;;;
2020/04/21 07:15:12;;;;;;;5.75;4.199999;;;;;;;13.85;44.80664;94734.93;;;;
2020/04/21 07:16:13;;;;;;;6.85;4.55;;;;;;;14.08;44.2959;94732.67;;;;
2020/04/21 07:17:13;;;;;;;6.85;4.55;;;;;;;14.08;44.2959;94732.67;;;;
2020/04/21 07:18:15;;;;;;;7;4.05;;;;;;;14.44;43.9082;94728.89;;;;
2020/04/21 07:19:15;;;;;;;7;4.05;;;;;;;14.44;43.9082;94728.89;;;;
2020/04/21 07:20:16;;;;;;;7;4.05;;;;;;;14.44;43.9082;94728.89;;;;
2020/04/21 07:21:16;;;;;;;7;4.05;;;;;;;14.44;43.9082;94728.89;;;;